createdAt,value
2019-02-05T00:02:08.070Z,77.02
2019-02-05T00:04:35.573Z,78.31
2019-02-05T00:07:03.360Z,79.12
2019-02-05T00:09:30.943Z,80.05
2019-02-05T00:11:58.904Z,80.81
2019-02-05T00:14:26.363Z,80.72
2019-02-05T00:16:53.923Z,80.26
2019-02-05T00:19:21.405Z,80.22
2019-02-05T00:21:48.911Z,80.88
2019-02-05T00:24:17.204Z,82.11
2019-02-05T00:26:44.682Z,82.07
2019-02-05T00:29:12.180Z,81.89
2019-02-05T00:31:39.660Z,81.16
2019-02-05T00:34:07.141Z,81.67
2019-02-05T00:36:34.641Z,81.38
2019-02-05T00:39:02.146Z,82.79
2019-02-05T00:41:29.611Z,82.31
2019-02-05T00:43:57.085Z,83.66
2019-02-05T00:46:25.247Z,85.42
2019-02-05T00:48:52.886Z,83.89
2019-02-05T00:51:20.423Z,84.57
2019-02-05T00:53:48.074Z,84.13
2019-02-05T00:56:17.599Z,84.34
2019-02-05T00:58:43.192Z,84.68
2019-02-05T01:01:15.317Z,84.05
2019-02-05T01:03:40.140Z,84.47
2019-02-05T01:06:07.597Z,84.78
2019-02-05T01:08:35.272Z,85.24
2019-02-05T01:11:02.733Z,84.25
2019-02-05T01:13:30.237Z,85.36
2019-02-05T01:15:57.790Z,84.60
2019-02-05T01:18:25.286Z,85.75
2019-02-05T01:20:52.844Z,86.08
2019-02-05T01:23:20.394Z,86.26
2019-02-05T01:25:47.964Z,85.31
2019-02-05T01:28:15.415Z,85.04
2019-02-05T01:30:42.882Z,85.44
2019-02-05T01:33:10.466Z,85.76
2019-02-05T01:35:37.940Z,84.52
2019-02-05T01:38:05.431Z,84.50
2019-02-05T01:40:32.944Z,84.52
2019-02-05T01:43:00.452Z,84.62
2019-02-05T01:45:27.967Z,84.33
2019-02-05T01:47:55.590Z,83.63
2019-02-05T01:50:24.011Z,84.34
2019-02-05T01:52:51.540Z,83.44
2019-02-05T01:55:19.110Z,84.24
2019-02-05T01:57:47.462Z,84.54
2019-02-05T02:00:18.616Z,83.81
2019-02-05T02:02:46.107Z,83.15
2019-02-05T02:05:13.574Z,83.02
2019-02-05T02:07:41.107Z,83.91
2019-02-05T02:10:09.394Z,84.34
2019-02-05T02:12:36.924Z,84.68
2019-02-05T02:15:04.424Z,84.94
2019-02-05T02:17:31.935Z,84.74
2019-02-05T02:19:59.482Z,84.99
2019-02-05T02:22:26.941Z,84.54
2019-02-05T02:24:54.452Z,85.43
2019-02-05T02:27:21.888Z,85.49
2019-02-05T02:29:49.419Z,84.63
2019-02-05T02:32:16.867Z,84.56
2019-02-05T02:34:44.325Z,85.14
2019-02-05T02:37:11.772Z,84.91
2019-02-05T02:39:39.255Z,84.60
2019-02-05T02:42:06.739Z,85.09
2019-02-05T02:44:34.262Z,85.19
2019-02-05T02:47:01.726Z,85.48
2019-02-05T02:49:29.169Z,85.79
2019-02-05T02:51:56.621Z,85.44
2019-02-05T02:54:24.110Z,87.04
2019-02-05T02:57:04.221Z,87.84
2019-02-05T02:59:19.116Z,87.39
2019-02-05T03:01:46.596Z,87.50
2019-02-05T03:04:14.121Z,88.53
2019-02-05T03:06:41.588Z,87.39
2019-02-05T03:09:09.066Z,86.54
2019-02-05T03:11:36.563Z,86.32
2019-02-05T03:14:04.028Z,87.06
2019-02-05T03:16:31.525Z,87.18
2019-02-05T03:18:59.030Z,86.88
2019-02-05T03:21:27.063Z,86.51
2019-02-05T03:23:54.550Z,87.03
2019-02-05T03:26:22.045Z,87.12
2019-02-05T03:28:49.580Z,87.33
2019-02-05T03:31:17.052Z,87.54
2019-02-05T03:33:44.530Z,87.21
2019-02-05T03:36:12.032Z,87.19
2019-02-05T03:38:39.491Z,86.82
2019-02-05T03:41:06.970Z,87.62
2019-02-05T03:43:34.452Z,87.42
2019-02-05T03:46:01.961Z,88.21
2019-02-05T03:48:29.478Z,88.70
2019-02-05T03:50:59.538Z,88.58
2019-02-05T03:53:31.590Z,88.49
2019-02-05T03:56:02.051Z,88.45
2019-02-05T03:58:41.241Z,89.17
2019-02-05T04:01:11.124Z,89.33
2019-02-05T04:03:40.418Z,89.37
2019-02-05T04:06:33.831Z,88.90
2019-02-05T04:09:21.008Z,89.02
2019-02-05T04:12:05.990Z,88.79
2019-02-05T04:14:37.955Z,89.43
2019-02-05T04:17:23.890Z,89.35
2019-02-05T04:19:57.260Z,88.96
2019-02-05T04:22:46.408Z,88.34
2019-02-05T04:25:29.724Z,88.72
2019-02-05T04:27:58.963Z,88.20
2019-02-05T04:30:36.993Z,88.94
2019-02-05T04:36:20.579Z,88.90
2019-02-05T04:38:54.563Z,88.40
2019-02-05T04:41:37.744Z,88.63
2019-02-05T04:44:25.561Z,89.06
2019-02-05T04:47:26.660Z,89.30
2019-02-05T04:49:58.954Z,89.73
2019-02-05T04:52:41.143Z,90.03
2019-02-05T04:55:17.395Z,90.57
2019-02-05T04:57:57.999Z,89.92
2019-02-05T05:00:23.685Z,89.48
2019-02-05T05:03:01.896Z,89.58
2019-02-05T05:05:43.923Z,90.04
2019-02-05T05:08:17.858Z,89.75
2019-02-05T05:10:45.328Z,90.20
2019-02-05T05:13:13.577Z,89.80
2019-02-05T05:15:41.095Z,90.34
2019-02-05T05:18:08.611Z,90.89
2019-02-05T05:20:36.129Z,90.76
2019-02-05T05:23:03.587Z,90.86
2019-02-05T05:25:31.106Z,91.21
2019-02-05T05:28:09.769Z,91.30
2019-02-05T05:30:27.064Z,90.67
2019-02-05T05:32:54.565Z,90.65
2019-02-05T05:35:22.054Z,90.26
2019-02-05T05:37:49.520Z,90.88
2019-02-05T05:40:17.010Z,91.17
2019-02-05T05:42:44.496Z,91.19
2019-02-05T05:45:12.002Z,91.92
2019-02-05T05:47:39.554Z,91.69
2019-02-05T05:50:07.105Z,91.33
2019-02-05T05:52:36.292Z,91.71
2019-02-05T05:55:03.804Z,91.62
2019-02-05T05:57:31.334Z,91.80
2019-02-05T05:59:58.788Z,92.72
2019-02-05T06:02:26.276Z,92.35
2019-02-05T06:04:53.738Z,92.33
2019-02-05T06:07:21.294Z,92.46
2019-02-05T06:09:48.762Z,92.32
2019-02-05T06:12:16.270Z,92.13
2019-02-05T06:14:45.673Z,92.19
2019-02-05T06:17:13.285Z,92.36
2019-02-05T06:19:40.770Z,92.25
2019-02-05T06:22:08.252Z,92.05
2019-02-05T06:24:35.746Z,92.13
2019-02-05T06:27:03.222Z,92.16
2019-02-05T06:29:30.671Z,91.36
2019-02-05T06:31:58.144Z,91.20
2019-02-05T06:34:25.653Z,91.44
2019-02-05T06:36:53.095Z,91.38
2019-02-05T06:39:20.578Z,91.36
2019-02-05T06:41:48.062Z,91.36
2019-02-05T06:44:15.560Z,91.15
2019-02-05T06:46:43.136Z,91.19
2019-02-05T06:49:10.634Z,90.47
2019-02-05T06:51:38.091Z,90.78
2019-02-05T06:54:05.610Z,91.51
2019-02-05T06:56:33.076Z,91.13
2019-02-05T06:59:00.601Z,91.54
2019-02-05T07:01:28.146Z,90.99
2019-02-05T07:03:55.655Z,90.45
2019-02-05T07:06:23.157Z,90.76
2019-02-05T07:08:50.708Z,90.68
2019-02-05T07:11:19.718Z,90.66
2019-02-05T07:13:47.253Z,90.45
2019-02-05T07:16:14.773Z,90.59
2019-02-05T07:18:42.284Z,90.85
2019-02-05T07:21:09.861Z,91.83
2019-02-05T07:23:37.370Z,91.66
2019-02-05T07:26:05.003Z,91.21
2019-02-05T07:28:32.497Z,92.07
2019-02-05T07:31:00.015Z,92.28
2019-02-05T07:33:27.558Z,91.75
2019-02-05T07:35:55.216Z,91.37
2019-02-05T07:38:22.764Z,92.00
2019-02-05T07:40:50.328Z,92.42
2019-02-05T07:43:17.896Z,92.38
2019-02-05T07:45:46.445Z,92.22
2019-02-05T07:48:13.974Z,92.41
2019-02-05T07:50:41.502Z,92.35
2019-02-05T07:53:09.066Z,92.57
2019-02-05T07:55:36.631Z,92.55
2019-02-05T07:58:04.196Z,92.42
2019-02-05T08:00:31.731Z,93.11
2019-02-05T08:02:59.290Z,93.06
2019-02-05T08:05:27.680Z,93.00
2019-02-05T08:07:55.229Z,93.25
2019-02-05T08:10:22.814Z,93.32
2019-02-05T08:12:50.424Z,93.36
2019-02-05T08:15:19.860Z,93.45
2019-02-05T08:17:47.518Z,93.26
2019-02-05T08:20:15.732Z,93.56
2019-02-05T08:22:43.246Z,93.54
2019-02-05T08:25:11.678Z,93.51
2019-02-05T08:27:39.239Z,93.61
2019-02-05T08:30:06.808Z,93.98
2019-02-05T08:32:34.345Z,94.23
2019-02-05T08:35:01.909Z,94.22
2019-02-05T08:37:29.444Z,94.26
2019-02-05T08:39:57.061Z,94.41
2019-02-05T08:42:24.576Z,94.82
2019-02-05T08:44:52.098Z,94.80
2019-02-05T08:47:19.585Z,94.64
2019-02-05T08:49:47.653Z,94.45
2019-02-05T08:52:15.192Z,94.05
2019-02-05T08:54:42.773Z,94.00
2019-02-05T08:57:10.302Z,94.36
2019-02-05T08:59:37.838Z,94.38
2019-02-05T09:02:05.368Z,94.05
2019-02-05T09:04:32.882Z,94.25
2019-02-05T09:07:00.382Z,94.01
2019-02-05T09:09:28.026Z,93.42
2019-02-05T09:11:55.546Z,93.12
2019-02-05T09:14:23.078Z,93.01
2019-02-05T09:16:50.588Z,92.82
2019-02-05T09:19:18.246Z,92.97
2019-02-05T09:21:45.860Z,93.86
2019-02-05T09:24:15.275Z,93.24
2019-02-05T09:26:42.876Z,93.22
2019-02-05T09:29:10.403Z,93.79
2019-02-05T09:31:37.961Z,93.37
2019-02-05T09:34:05.470Z,93.37
2019-02-05T09:36:33.048Z,92.92
2019-02-05T09:39:00.544Z,92.90
2019-02-05T09:41:28.095Z,93.48
2019-02-05T09:43:55.700Z,93.18
2019-02-05T09:46:23.234Z,93.09
2019-02-05T09:48:50.751Z,93.37
2019-02-05T09:51:18.858Z,92.82
2019-02-05T09:53:46.365Z,93.38
2019-02-05T09:56:13.978Z,93.45
2019-02-05T09:58:41.494Z,92.81
2019-02-05T10:01:09.045Z,93.06
2019-02-05T10:03:36.586Z,93.21
2019-02-05T10:06:04.110Z,92.99
2019-02-05T10:08:31.650Z,93.28
2019-02-05T10:10:59.199Z,93.35
2019-02-05T10:13:26.792Z,92.80
2019-02-05T10:15:54.420Z,92.76
2019-02-05T10:18:21.878Z,92.84
2019-02-05T10:20:49.480Z,92.87
2019-02-05T10:23:17.000Z,92.42
2019-02-05T10:25:44.534Z,92.63
2019-02-05T10:28:12.098Z,92.23
2019-02-05T10:30:40.441Z,92.26
2019-02-05T10:33:07.955Z,92.44
2019-02-05T10:35:36.509Z,92.68
2019-02-05T10:38:04.127Z,92.59
2019-02-05T10:40:31.683Z,92.30
2019-02-05T10:42:59.219Z,92.18
2019-02-05T10:45:26.769Z,91.99
2019-02-05T10:47:54.274Z,92.04
2019-02-05T10:50:21.844Z,91.85
2019-02-05T10:52:50.022Z,92.31
2019-02-05T10:55:19.474Z,92.24
2019-02-05T10:57:48.100Z,92.09
2019-02-05T11:00:16.987Z,92.16
2019-02-05T11:02:44.530Z,91.99
2019-02-05T11:05:12.795Z,91.93
2019-02-05T11:07:40.357Z,92.37
2019-02-05T11:10:07.924Z,91.86
2019-02-05T11:12:35.450Z,91.61
2019-02-05T11:15:03.019Z,91.28
2019-02-05T11:17:30.564Z,91.98
2019-02-05T11:19:58.139Z,91.65
2019-02-05T11:22:25.655Z,91.20
2019-02-05T11:24:53.188Z,90.97
2019-02-05T11:27:20.706Z,91.14
2019-02-05T11:29:48.225Z,91.30
2019-02-05T11:32:15.745Z,91.00
2019-02-05T11:34:43.245Z,90.94
2019-02-05T11:37:10.757Z,91.35
2019-02-05T11:39:38.273Z,91.21
2019-02-05T11:42:05.793Z,90.97
2019-02-05T11:44:33.311Z,90.76
2019-02-05T11:47:03.813Z,90.46
2019-02-05T11:49:28.404Z,90.23
2019-02-05T11:51:55.932Z,90.40
2019-02-05T11:54:23.465Z,90.86
2019-02-05T11:56:51.570Z,91.08
2019-02-05T11:59:19.079Z,91.27
2019-02-05T12:01:46.594Z,91.41
2019-02-05T12:04:14.131Z,91.13
2019-02-05T12:06:41.705Z,91.49
2019-02-05T12:09:15.054Z,91.57
2019-02-05T12:11:42.595Z,91.63
2019-02-05T12:14:10.090Z,91.25
2019-02-05T12:16:38.519Z,90.95
2019-02-05T12:19:06.211Z,91.13
2019-02-05T12:21:33.754Z,91.09
2019-02-05T12:24:01.282Z,90.73
2019-02-05T12:26:28.862Z,90.43
2019-02-05T12:28:56.367Z,90.91
2019-02-05T12:31:23.898Z,91.32
2019-02-05T12:33:51.981Z,91.26
2019-02-05T12:36:19.584Z,91.21
2019-02-05T12:38:47.142Z,91.13
2019-02-05T12:41:14.761Z,90.92
2019-02-05T12:43:42.273Z,90.78
2019-02-05T12:46:09.879Z,90.41
2019-02-05T12:48:37.429Z,90.60
2019-02-05T12:51:05.011Z,90.86
2019-02-05T12:53:32.544Z,90.89
2019-02-05T12:56:00.051Z,91.16
2019-02-05T12:58:27.561Z,90.67
2019-02-05T13:00:59.052Z,90.09
2019-02-05T13:03:22.666Z,90.09
2019-02-05T13:05:50.195Z,90.50
2019-02-05T13:08:17.693Z,91.11
2019-02-05T13:10:46.101Z,91.06
2019-02-05T13:13:13.588Z,91.11
2019-02-05T13:15:41.090Z,90.92
2019-02-05T13:18:08.637Z,91.70
2019-02-05T13:20:36.141Z,91.28
2019-02-05T13:23:03.685Z,91.65
2019-02-05T13:25:31.270Z,91.10
2019-02-05T13:27:58.865Z,90.66
2019-02-05T13:30:29.864Z,91.12
2019-02-05T13:32:57.375Z,90.52
2019-02-05T13:35:26.413Z,90.79
2019-02-05T13:37:54.063Z,91.00
2019-02-05T13:40:21.575Z,90.91
2019-02-05T13:42:49.130Z,90.57
2019-02-05T13:45:16.617Z,90.48
2019-02-05T13:47:44.179Z,90.20
2019-02-05T13:50:11.695Z,90.00
2019-02-05T13:52:39.253Z,90.47
2019-02-05T13:55:06.810Z,90.53
2019-02-05T13:57:35.229Z,91.23
2019-02-05T14:00:02.806Z,91.16
2019-02-05T14:02:30.343Z,91.06
2019-02-05T14:04:57.832Z,90.98
2019-02-05T14:07:25.373Z,90.50
2019-02-05T14:09:52.892Z,90.45
2019-02-05T14:12:21.956Z,90.44
2019-02-05T14:14:47.972Z,90.70
2019-02-05T14:17:15.560Z,90.48
2019-02-05T14:19:44.710Z,90.60
2019-02-05T14:22:12.211Z,90.23
2019-02-05T14:24:40.399Z,90.00
2019-02-05T14:27:07.908Z,89.44
2019-02-05T14:29:35.441Z,89.64
2019-02-05T14:32:02.971Z,89.50
2019-02-05T14:34:30.479Z,89.01
2019-02-05T14:36:57.980Z,89.49
2019-02-05T14:39:25.480Z,89.30
2019-02-05T14:41:53.005Z,89.43
2019-02-05T14:44:20.569Z,89.69
2019-02-05T14:46:48.146Z,89.56
2019-02-05T14:49:15.639Z,88.82
2019-02-05T14:51:43.147Z,88.53
2019-02-05T14:54:10.772Z,88.79
2019-02-05T14:56:38.307Z,89.49
2019-02-05T14:59:05.827Z,89.76
2019-02-05T15:01:42.852Z,89.54
2019-02-05T15:04:00.944Z,89.16
2019-02-05T15:06:28.459Z,88.65
2019-02-05T15:08:55.953Z,87.90
2019-02-05T15:11:23.487Z,87.49
2019-02-05T15:13:51.002Z,87.37
2019-02-05T15:16:18.503Z,87.20
2019-02-05T15:18:46.009Z,87.07
2019-02-05T15:21:13.598Z,87.46
2019-02-05T15:23:41.151Z,87.77
2019-02-05T15:26:08.718Z,87.56
2019-02-05T15:28:36.210Z,87.97
2019-02-05T15:31:03.796Z,89.20
2019-02-05T15:33:32.723Z,89.10
2019-02-05T15:36:00.608Z,89.22
2019-02-05T15:38:28.214Z,88.51
2019-02-05T15:40:55.761Z,87.70
2019-02-05T15:43:23.317Z,86.97
2019-02-05T15:45:50.807Z,87.28
2019-02-05T15:48:18.341Z,86.93
2019-02-05T15:50:45.854Z,87.07
2019-02-05T15:53:13.412Z,86.73
2019-02-05T15:55:41.497Z,86.49
2019-02-05T15:58:09.002Z,86.05
2019-02-05T16:00:36.550Z,86.64
2019-02-05T16:03:04.033Z,86.02
2019-02-05T16:05:31.598Z,86.09
2019-02-05T16:07:59.119Z,86.51
2019-02-05T16:10:26.596Z,86.59
2019-02-05T16:12:54.137Z,86.45
2019-02-05T16:15:21.689Z,86.10
2019-02-05T16:17:49.239Z,86.16
2019-02-05T16:20:16.777Z,86.24
2019-02-05T16:22:44.277Z,86.07
2019-02-05T16:25:15.573Z,85.98
2019-02-05T16:27:43.128Z,85.35
2019-02-05T16:30:12.941Z,85.98
2019-02-05T16:32:39.882Z,85.47
2019-02-05T16:35:07.482Z,85.98
2019-02-05T16:37:35.032Z,85.61
2019-02-05T16:40:02.538Z,85.80
2019-02-05T16:42:30.080Z,85.97
2019-02-05T16:44:57.731Z,85.87
2019-02-05T16:47:25.216Z,85.46
2019-02-05T16:49:52.791Z,85.73
2019-02-05T16:52:20.337Z,86.06
2019-02-05T16:54:47.916Z,86.10
2019-02-05T16:57:15.437Z,86.04
2019-02-05T16:59:42.944Z,85.93
2019-02-05T17:02:10.470Z,86.00
2019-02-05T17:04:37.985Z,86.24
2019-02-05T17:07:05.530Z,86.25
2019-02-05T17:09:33.067Z,86.07
2019-02-05T17:12:00.573Z,86.31
2019-02-05T17:14:28.145Z,85.51
2019-02-05T17:16:55.683Z,85.56
2019-02-05T17:19:23.257Z,85.67
2019-02-05T17:21:50.781Z,85.63
2019-02-05T17:24:18.325Z,85.04
2019-02-05T17:26:45.880Z,85.13
2019-02-05T17:29:13.408Z,85.10
2019-02-05T17:31:40.927Z,84.60
2019-02-05T17:34:08.447Z,84.23
2019-02-05T17:36:36.050Z,84.03
2019-02-05T17:39:03.597Z,84.71
2019-02-05T17:41:31.166Z,85.25
2019-02-05T17:43:59.803Z,85.28
2019-02-05T17:46:28.331Z,84.86
2019-02-05T17:48:55.853Z,85.05
2019-02-05T17:51:23.385Z,84.59
2019-02-05T17:53:50.927Z,84.92
2019-02-05T17:56:18.467Z,85.33
2019-02-05T17:58:46.052Z,84.94
2019-02-05T18:01:13.554Z,84.41
2019-02-05T18:03:41.088Z,83.67
2019-02-05T18:06:08.690Z,83.40
2019-02-05T18:08:36.213Z,83.65
2019-02-05T18:11:03.694Z,83.12
2019-02-05T18:13:31.201Z,84.26
2019-02-05T18:15:58.886Z,83.79
2019-02-05T18:18:26.338Z,83.35
2019-02-05T18:20:53.962Z,83.32
2019-02-05T18:23:21.473Z,83.73
2019-02-05T18:25:49.048Z,83.19
2019-02-05T18:28:16.579Z,83.61
2019-02-05T18:30:44.146Z,83.68
2019-02-05T18:33:11.680Z,84.47
2019-02-05T18:35:39.214Z,84.54
2019-02-05T18:38:14.793Z,84.45
2019-02-05T18:40:42.346Z,83.51
2019-02-05T18:43:09.870Z,84.22
2019-02-05T18:45:37.424Z,83.45
2019-02-05T18:48:05.021Z,84.24
2019-02-05T18:50:32.575Z,85.28
2019-02-05T18:53:00.133Z,85.26
2019-02-05T18:55:30.221Z,84.65
2019-02-05T18:58:08.454Z,83.90
2019-02-05T19:00:28.628Z,83.03
2019-02-05T19:02:56.200Z,83.16
2019-02-05T19:05:23.775Z,82.89
2019-02-05T19:07:51.342Z,82.36
2019-02-05T19:10:19.471Z,82.00
2019-02-05T19:12:47.048Z,81.95
2019-02-05T19:15:17.304Z,82.27
2019-02-05T19:17:44.806Z,82.24
2019-02-05T19:20:12.376Z,82.09
2019-02-05T19:22:40.086Z,82.01
2019-02-05T19:25:07.767Z,82.89
2019-02-05T19:27:35.341Z,83.62
2019-02-05T19:30:02.945Z,83.14
2019-02-05T19:32:30.450Z,82.53
2019-02-05T19:34:57.952Z,81.85
2019-02-05T19:37:25.637Z,82.17
2019-02-05T19:39:53.270Z,81.97
2019-02-05T19:45:38.174Z,81.57
2019-02-05T19:48:05.756Z,81.52
2019-02-05T19:50:33.623Z,81.23
2019-02-05T19:53:01.233Z,80.98
2019-02-05T19:55:28.764Z,80.76
2019-02-05T19:57:56.404Z,80.60
2019-02-05T20:00:23.915Z,80.48
2019-02-05T20:02:51.490Z,80.45
2019-02-05T20:05:19.042Z,80.09
2019-02-05T20:07:47.258Z,79.95
2019-02-05T20:10:14.826Z,80.07
2019-02-05T20:12:42.414Z,79.81
2019-02-05T20:15:10.677Z,80.63
2019-02-05T20:17:38.219Z,80.91
2019-02-05T20:20:07.346Z,80.93
2019-02-05T20:22:34.850Z,80.68
2019-02-05T20:25:02.377Z,80.50
2019-02-05T20:27:29.939Z,81.09
2019-02-05T20:29:57.576Z,81.21
2019-02-05T20:32:28.142Z,81.25
2019-02-05T20:34:53.857Z,80.92
2019-02-05T20:37:21.391Z,80.70
2019-02-05T20:39:48.976Z,80.61
2019-02-05T20:42:16.503Z,80.48
2019-02-05T20:44:44.286Z,80.33
2019-02-05T20:47:11.830Z,80.38
2019-02-05T20:49:39.348Z,80.10
2019-02-05T20:52:06.858Z,80.18
2019-02-05T20:54:34.383Z,80.02
2019-02-05T20:57:01.917Z,79.99
2019-02-05T20:59:30.441Z,80.03
2019-02-05T21:01:56.988Z,79.98
2019-02-05T21:04:24.521Z,80.05
2019-02-05T21:06:52.048Z,79.60
2019-02-05T21:09:19.559Z,79.89
2019-02-05T21:11:47.143Z,80.02
2019-02-05T21:14:14.663Z,79.89
2019-02-05T21:16:42.200Z,79.79
2019-02-05T21:19:10.611Z,79.79
2019-02-05T21:21:38.240Z,79.92
2019-02-05T21:24:05.761Z,79.70
2019-02-05T21:26:33.378Z,79.54
2019-02-05T21:29:00.864Z,79.63
2019-02-05T21:31:28.476Z,78.94
2019-02-05T21:33:55.976Z,79.17
2019-02-05T21:36:23.556Z,79.06
2019-02-05T21:38:51.065Z,78.64
2019-02-05T21:41:18.606Z,78.97
2019-02-05T21:43:46.130Z,78.83
2019-02-05T21:46:13.656Z,80.04
2019-02-05T21:48:41.189Z,79.98
2019-02-05T21:51:08.769Z,79.77
2019-02-05T21:53:36.316Z,79.39
2019-02-05T21:56:03.828Z,79.43
2019-02-05T21:58:31.337Z,79.82
2019-02-05T22:00:58.851Z,79.49
2019-02-05T22:03:26.419Z,79.53
2019-02-05T22:05:53.991Z,80.08
2019-02-05T22:08:21.580Z,80.08
2019-02-05T22:10:49.109Z,80.40
2019-02-05T22:13:16.705Z,81.29
2019-02-05T22:15:44.230Z,81.78
2019-02-05T22:18:11.830Z,82.36
2019-02-05T22:20:39.309Z,82.20
2019-02-05T22:23:06.875Z,81.96
2019-02-05T22:25:34.397Z,82.22
2019-02-05T22:28:01.938Z,82.05
2019-02-05T22:30:30.179Z,81.66
2019-02-05T22:32:57.716Z,81.83
2019-02-05T22:35:25.317Z,81.40
2019-02-05T22:37:52.872Z,81.66
2019-02-05T22:40:20.391Z,81.57
2019-02-05T22:42:47.957Z,81.38
2019-02-05T22:45:15.483Z,80.99
2019-02-05T22:47:42.997Z,81.08
2019-02-05T22:50:12.392Z,80.99
2019-02-05T22:52:39.989Z,80.76
2019-02-05T22:55:07.491Z,80.38
2019-02-05T22:57:35.025Z,80.36
2019-02-05T23:00:02.542Z,80.39
2019-02-05T23:02:30.099Z,81.66
2019-02-05T23:04:59.192Z,81.57
2019-02-05T23:07:26.731Z,80.70
2019-02-05T23:09:54.250Z,80.38
2019-02-05T23:12:21.782Z,80.24
2019-02-05T23:14:50.258Z,80.00
2019-02-05T23:17:17.744Z,80.30
2019-02-05T23:19:45.249Z,80.38
2019-02-05T23:22:12.754Z,80.22
2019-02-05T23:24:40.221Z,80.44
2019-02-05T23:27:07.701Z,80.42
2019-02-05T23:29:35.187Z,80.21
2019-02-05T23:32:02.681Z,80.31
2019-02-05T23:34:30.165Z,80.76
2019-02-05T23:36:57.651Z,80.54
2019-02-05T23:39:25.130Z,80.06
2019-02-05T23:41:52.624Z,79.93
2019-02-05T23:44:20.132Z,80.38
2019-02-05T23:46:47.655Z,79.89
2019-02-05T23:49:15.138Z,80.16
2019-02-05T23:51:43.280Z,80.06
2019-02-05T23:54:10.796Z,79.61
2019-02-05T23:56:38.311Z,79.49
2019-02-05T23:59:05.792Z,78.90
